createdAt,value
2019-03-19T19:21:14.755Z,41.17
2019-03-19T19:23:46.415Z,41.19
2019-03-19T19:26:19.103Z,41.56
2019-03-19T19:28:50.978Z,41.56
2019-03-19T19:31:22.851Z,42.04
2019-03-19T19:33:54.586Z,41.59
2019-03-19T19:36:26.100Z,41.59
2019-03-19T19:38:57.849Z,41.71
2019-03-19T19:41:29.516Z,41.98
2019-03-19T19:44:01.611Z,41.98
2019-03-19T19:46:33.309Z,42.10
2019-03-19T19:49:05.129Z,42.15
2019-03-19T19:51:36.726Z,42.44
2019-03-19T19:54:08.629Z,42.44
2019-03-19T19:56:40.177Z,42.31
2019-03-19T19:59:11.858Z,42.39
2019-03-19T20:01:43.471Z,42.40
2019-03-19T20:04:15.537Z,42.60
2019-03-19T20:06:47.321Z,42.96
2019-03-19T20:09:19.010Z,42.96
2019-03-19T20:11:50.766Z,42.63
2019-03-19T20:14:22.479Z,42.80
2019-03-19T20:16:54.383Z,42.80
2019-03-19T20:19:25.970Z,43.10
2019-03-19T20:21:57.444Z,43.10
2019-03-19T20:24:29.385Z,42.90
2019-03-19T20:27:01.153Z,43.07
2019-03-19T20:29:33.158Z,43.22
2019-03-19T20:32:04.866Z,43.22
2019-03-19T20:34:36.902Z,43.76
2019-03-19T20:37:08.398Z,43.76
2019-03-19T20:39:39.783Z,43.51
2019-03-19T20:42:11.560Z,43.38
2019-03-19T20:44:43.120Z,43.38
2019-03-19T20:47:14.619Z,43.39
2019-03-19T20:49:47.837Z,43.39
2019-03-19T20:52:19.482Z,43.18
2019-03-19T20:54:52.416Z,43.57
2019-03-19T20:57:24.036Z,43.57
2019-03-19T20:59:55.644Z,44.02
2019-03-19T21:02:27.438Z,44.02
2019-03-19T21:04:59.106Z,44.68
2019-03-19T21:07:31.055Z,44.16
2019-03-19T21:10:02.994Z,43.90
2019-03-19T21:12:34.917Z,43.90
2019-03-19T21:15:07.881Z,44.11
2019-03-19T21:17:39.884Z,43.75
2019-03-19T21:20:11.634Z,43.81
2019-03-19T21:22:43.631Z,44.41
2019-03-19T21:25:15.640Z,44.41
2019-03-19T21:27:47.374Z,44.41
2019-03-19T21:30:19.290Z,44.25
2019-03-19T21:32:51.025Z,44.40
2019-03-19T21:35:23.044Z,43.87
2019-03-19T21:37:54.696Z,43.87
2019-03-19T21:40:26.486Z,44.16
2019-03-19T21:42:58.442Z,44.53
2019-03-19T21:45:30.358Z,44.62
2019-03-19T21:48:02.189Z,44.51
2019-03-19T21:50:33.898Z,44.58
2019-03-19T21:53:05.487Z,44.58
2019-03-19T21:55:37.143Z,44.27
2019-03-19T21:58:08.892Z,44.19
2019-03-19T22:00:40.921Z,44.53
2019-03-19T22:03:12.461Z,44.53
2019-03-19T22:05:43.981Z,44.14
2019-03-19T22:08:16.226Z,44.14
2019-03-19T22:10:47.956Z,44.14
2019-03-19T22:13:19.589Z,44.14
2019-03-19T22:15:51.403Z,44.47
2019-03-19T22:18:23.235Z,44.51
2019-03-19T22:20:54.927Z,45.27
2019-03-19T22:23:26.798Z,45.27
2019-03-19T22:25:58.588Z,44.94
2019-03-19T22:28:30.138Z,45.23
2019-03-19T22:31:02.114Z,45.23
2019-03-19T22:33:33.915Z,45.21
2019-03-19T22:36:05.572Z,45.28
2019-03-19T22:38:37.096Z,45.28
2019-03-19T22:41:08.800Z,45.25
2019-03-19T22:43:40.557Z,45.68
2019-03-19T22:46:21.282Z,45.68
2019-03-19T22:48:46.205Z,45.88
2019-03-19T22:51:17.952Z,45.52
2019-03-19T22:53:49.790Z,45.15
2019-03-19T22:56:21.999Z,46.21
2019-03-19T22:58:53.975Z,45.98
2019-03-19T23:01:25.733Z,45.98
2019-03-19T23:03:57.495Z,46.72
2019-03-19T23:06:29.381Z,46.55
2019-03-19T23:09:01.394Z,46.26
2019-03-19T23:11:34.966Z,46.26
2019-03-19T23:14:07.025Z,46.05
2019-03-19T23:16:38.801Z,45.96
2019-03-19T23:19:10.875Z,46.26
2019-03-19T23:21:42.715Z,46.15
2019-03-19T23:24:14.550Z,46.30
2019-03-19T23:26:46.190Z,45.98
2019-03-19T23:29:18.325Z,46.23
2019-03-19T23:31:50.013Z,46.23
2019-03-19T23:34:21.767Z,46.33
2019-03-19T23:36:53.775Z,46.26
2019-03-19T23:39:25.969Z,46.26
2019-03-19T23:41:57.749Z,46.14
2019-03-19T23:44:29.562Z,46.14
2019-03-19T23:47:01.475Z,47.06
2019-03-19T23:49:33.444Z,46.56
2019-03-19T23:52:05.101Z,46.47
2019-03-19T23:54:37.918Z,46.55
2019-03-19T23:57:09.766Z,46.50
2019-03-19T23:59:42.387Z,46.72
